Time;durP1;ratioP1;P1;durP2;ratioP2;P2;SDS_P1;SDS_P2;PMS_P1;PMS_P2;Temp;Humidity;BMP_temperature;BMP_pressure;BME280_temperature;BME280_humidity;BME280_pressure;Samples;Min_cycle;Max_cycle;Signal;HPM_P1;HPM_P2
2022/01/07 00:02:07;;;;;;;14.50;8.00;;;-1.50;99.90;;;;;;5014678;28;20171;-29
2022/01/07 00:04:35;;;;;;;15.13;8.27;;;-1.50;99.90;;;;;;5014631;28;20182;-30
2022/01/07 00:07:03;;;;;;;20.57;9.53;;;-1.50;99.90;;;;;;5032356;28;20194;-31
2022/01/07 00:09:29;;;;;;;14.33;8.47;;;-1.50;99.90;;;;;;5014504;28;20191;-30
2022/01/07 00:11:55;;;;;;;19.50;8.90;;;-1.50;99.90;;;;;;5030929;28;20194;-30
2022/01/07 00:14:21;;;;;;;24.27;10.03;;;-1.50;99.90;;;;;;5032227;28;20256;-30
2022/01/07 00:16:48;;;;;;;17.03;8.47;;;-1.60;99.90;;;;;;5014282;28;20316;-30
2022/01/07 00:19:15;;;;;;;17.37;9.60;;;-1.60;99.90;;;;;;5014227;28;20179;-30
2022/01/07 00:21:41;;;;;;;17.50;9.23;;;-1.60;99.90;;;;;;4998172;28;20182;-30
2022/01/07 00:24:08;;;;;;;15.60;8.43;;;-1.70;99.90;;;;;;4997953;28;20313;-30
2022/01/07 00:26:33;;;;;;;19.60;9.53;;;-1.70;99.90;;;;;;5014155;28;20217;-29
2022/01/07 00:28:59;;;;;;;14.80;8.63;;;-1.70;99.90;;;;;;4997516;28;20190;-30
2022/01/07 00:31:25;;;;;;;16.53;9.47;;;-1.60;99.90;;;;;;4998142;28;20213;-30
2022/01/07 00:33:51;;;;;;;15.30;8.47;;;-1.70;99.90;;;;;;5030361;28;20218;-29
2022/01/07 00:36:17;;;;;;;16.20;8.60;;;-1.70;99.90;;;;;;4997993;28;20194;-30
2022/01/07 00:38:43;;;;;;;16.97;8.70;;;-1.60;99.90;;;;;;4997473;28;20312;-30
2022/01/07 00:41:09;;;;;;;17.63;8.33;;;-1.70;99.90;;;;;;4997669;28;20193;-31
2022/01/07 00:43:35;;;;;;;16.67;8.80;;;-1.70;99.90;;;;;;5013812;28;20189;-30
2022/01/07 00:46:01;;;;;;;18.90;8.20;;;-1.70;99.90;;;;;;5014291;28;20252;-30
2022/01/07 00:48:27;;;;;;;67.67;15.20;;;-1.70;99.90;;;;;;5013453;28;20183;-30
2022/01/07 00:50:53;;;;;;;16.90;8.83;;;-1.70;99.90;;;;;;4996718;28;20186;-30
2022/01/07 00:53:18;;;;;;;53.80;10.03;;;-1.80;99.90;;;;;;5031514;28;20214;-31
2022/01/07 00:55:44;;;;;;;59.27;11.23;;;-1.90;99.90;;;;;;4997482;28;20666;-31
2022/01/07 00:58:10;;;;;;;19.07;8.33;;;-2.00;99.90;;;;;;4997074;28;20175;-32
2022/01/07 01:00:37;;;;;;;19.57;7.87;;;-2.00;99.90;;;;;;4997412;28;20240;-31
2022/01/07 01:03:04;;;;;;;22.67;9.03;;;-2.00;99.90;;;;;;5013497;28;20174;-31
2022/01/07 01:05:30;;;;;;;16.37;9.03;;;-2.10;99.90;;;;;;4997206;28;20225;-31
2022/01/07 01:07:57;;;;;;;18.27;10.17;;;-2.20;99.90;;;;;;4997431;28;20190;-30
2022/01/07 01:10:27;;;;;;;20.00;8.93;;;-2.20;99.90;;;;;;5031570;28;20683;-31
2022/01/07 01:12:54;;;;;;;15.13;8.80;;;-2.40;99.90;;;;;;5013853;28;20175;-32
2022/01/07 01:15:22;;;;;;;16.93;9.17;;;-2.50;99.90;;;;;;5013556;28;20214;-33
2022/01/07 01:17:52;;;;;;;17.70;10.10;;;-2.60;99.90;;;;;;5013691;28;20183;-31
2022/01/07 01:20:19;;;;;;;17.50;9.80;;;-2.70;99.90;;;;;;4996687;28;20178;-31
2022/01/07 01:22:46;;;;;;;15.83;10.13;;;-2.60;99.90;;;;;;4997065;28;20345;-29
2022/01/07 01:25:13;;;;;;;21.43;11.07;;;-2.60;99.90;;;;;;5012792;28;20187;-31
2022/01/07 01:27:40;;;;;;;20.00;11.40;;;-2.60;99.90;;;;;;5429199;22;20228;-39
2022/01/07 01:30:09;;;;;;;20.87;11.87;;;-2.60;99.90;;;;;;5070276;28;20188;-38
2022/01/07 01:32:36;;;;;;;25.43;12.13;;;-2.60;99.90;;;;;;5069949;28;20170;-38
2022/01/07 01:35:03;;;;;;;22.63;12.03;;;-2.60;99.90;;;;;;5069638;28;20262;-38
2022/01/07 01:37:30;;;;;;;20.17;11.40;;;-2.50;99.90;;;;;;5053284;28;20193;-39
2022/01/07 01:39:57;;;;;;;20.23;10.43;;;-2.40;99.90;;;;;;5069524;28;20295;-38
2022/01/07 01:42:23;;;;;;;18.13;10.70;;;-2.40;99.90;;;;;;5052963;28;20180;-39
2022/01/07 01:44:49;;;;;;;16.03;9.90;;;-2.30;99.90;;;;;;5069837;28;20185;-40
2022/01/07 01:47:15;;;;;;;16.63;9.97;;;-2.30;99.90;;;;;;5069957;28;20213;-38
2022/01/07 01:49:41;;;;;;;16.83;10.60;;;-2.30;99.90;;;;;;5070861;28;20169;-39
2022/01/07 01:52:07;;;;;;;19.50;10.83;;;-2.30;99.90;;;;;;5052785;28;20193;-39
2022/01/07 01:54:33;;;;;;;19.83;11.07;;;-2.20;99.90;;;;;;5053043;28;20213;-38
2022/01/07 01:56:59;;;;;;;19.43;10.10;;;-2.30;99.90;;;;;;5052796;28;20281;-37
2022/01/07 01:59:27;;;;;;;13.33;8.87;;;-2.30;99.90;;;;;;5069089;28;20184;-39
2022/01/07 02:01:54;;;;;;;13.23;8.40;;;-2.30;99.90;;;;;;5053769;28;20184;-38
2022/01/07 02:04:21;;;;;;;14.40;8.23;;;-2.30;99.90;;;;;;5056828;28;20188;-37
2022/01/07 02:06:47;;;;;;;16.03;8.43;;;-2.30;99.90;;;;;;5056405;28;20227;-39
2022/01/07 02:09:14;;;;;;;16.03;9.30;;;-2.40;99.90;;;;;;5056131;28;20263;-39
2022/01/07 02:11:40;;;;;;;15.70;9.00;;;-2.40;99.90;;;;;;5072972;28;20177;-38
2022/01/07 02:14:06;;;;;;;17.97;9.67;;;-2.40;99.90;;;;;;5073242;28;20209;-40
2022/01/07 02:16:32;;;;;;;16.97;9.57;;;-2.50;99.90;;;;;;5056891;28;20202;-38
2022/01/07 02:18:58;;;;;;;17.27;9.67;;;-2.50;99.90;;;;;;5056346;28;20183;-38
2022/01/07 02:21:25;;;;;;;16.17;9.70;;;-2.50;99.90;;;;;;5056398;28;20177;-38
2022/01/07 02:23:51;;;;;;;15.07;9.00;;;-2.50;99.90;;;;;;5056302;28;20181;-38
2022/01/07 02:26:19;;;;;;;15.00;9.10;;;-2.50;99.90;;;;;;5055951;28;20215;-38
2022/01/07 02:28:46;;;;;;;10.50;7.50;;;-2.50;99.90;;;;;;5056035;28;20191;-37
2022/01/07 02:31:12;;;;;;;10.30;6.97;;;-2.60;99.90;;;;;;5056625;28;20281;-38
2022/01/07 02:33:37;;;;;;;12.37;7.53;;;-2.70;99.90;;;;;;5072729;28;20208;-39
2022/01/07 02:36:11;;;;;;;13.97;7.60;;;-2.70;99.90;;;;;;5056148;28;20201;-37
2022/01/07 02:38:37;;;;;;;10.77;7.60;;;-2.80;99.90;;;;;;5056099;28;20226;-38
2022/01/07 02:41:03;;;;;;;9.97;7.60;;;-2.80;99.90;;;;;;5055937;28;20209;-42
2022/01/07 02:43:31;;;;;;;11.47;8.27;;;-2.80;99.90;;;;;;5056082;28;20263;-38
2022/01/07 02:45:57;;;;;;;11.87;7.93;;;-2.80;99.90;;;;;;5073753;28;20193;-37
2022/01/07 02:48:23;;;;;;;11.87;8.00;;;-2.80;99.90;;;;;;5055633;28;20174;-36
2022/01/07 02:50:49;;;;;;;11.60;7.50;;;-2.80;99.90;;;;;;5056235;28;20185;-36
2022/01/07 02:53:15;;;;;;;14.17;7.10;;;-2.80;99.90;;;;;;5072743;28;20198;-36
2022/01/07 02:55:41;;;;;;;11.53;7.20;;;-2.70;99.90;;;;;;5072313;28;20182;-36
2022/01/07 02:58:08;;;;;;;13.83;7.30;;;-2.70;99.90;;;;;;5072305;28;20223;-36
2022/01/07 03:00:34;;;;;;;15.70;7.67;;;-2.70;99.90;;;;;;5055916;28;20185;-37
2022/01/07 03:03:03;;;;;;;14.63;7.97;;;-2.70;99.90;;;;;;5055709;28;20546;-36
2022/01/07 03:05:28;;;;;;;12.60;7.80;;;-2.70;99.90;;;;;;5056238;28;20181;-36
2022/01/07 03:07:55;;;;;;;15.07;8.60;;;-2.60;99.90;;;;;;5055058;28;20211;-36
2022/01/07 03:10:29;;;;;;;14.57;7.53;;;-2.60;99.90;;;;;;5055470;28;20231;-36
2022/01/07 03:12:57;;;;;;;12.80;8.00;;;-2.60;99.90;;;;;;5055233;28;20184;-36
2022/01/07 03:15:23;;;;;;;16.50;9.33;;;-2.50;99.90;;;;;;5055013;28;20195;-36
2022/01/07 03:17:49;;;;;;;14.03;8.60;;;-2.50;99.90;;;;;;5072143;28;20193;-37
2022/01/07 03:20:19;;;;;;;13.00;7.97;;;-2.50;99.90;;;;;;5055546;28;20170;-36
2022/01/07 03:22:45;;;;;;;13.83;8.27;;;-2.50;99.90;;;;;;5055166;28;20178;-36
2022/01/07 03:25:12;;;;;;;16.00;8.10;;;-2.50;99.90;;;;;;5055433;28;20177;-36
2022/01/07 03:27:38;;;;;;;15.13;8.97;;;-2.40;99.90;;;;;;5071779;28;20205;-37
2022/01/07 03:30:07;;;;;;;11.53;7.43;;;-2.30;99.90;;;;;;5055308;28;20272;-36
2022/01/07 03:32:33;;;;;;;13.47;7.50;;;-2.30;99.90;;;;;;5055150;28;20316;-37
2022/01/07 03:35:00;;;;;;;10.93;7.30;;;-2.30;99.90;;;;;;5071522;28;20208;-38
2022/01/07 03:37:26;;;;;;;16.30;8.27;;;-2.40;99.90;;;;;;5055040;28;20193;-36
2022/01/07 03:39:52;;;;;;;16.40;8.90;;;-2.40;99.90;;;;;;5055018;28;20170;-36
2022/01/07 03:42:18;;;;;;;13.30;8.63;;;-2.50;99.90;;;;;;5071578;28;20238;-36
2022/01/07 03:44:44;;;;;;;15.33;8.63;;;-2.50;99.90;;;;;;5054907;28;20652;-37
2022/01/07 03:47:10;;;;;;;16.63;8.33;;;-2.50;99.90;;;;;;5071648;28;20299;-36
2022/01/07 03:49:36;;;;;;;15.50;8.00;;;-2.50;99.90;;;;;;5054275;28;20292;-36
2022/01/07 03:52:03;;;;;;;13.23;8.27;;;-2.40;99.90;;;;;;5070722;28;20189;-36
2022/01/07 03:54:29;;;;;;;14.90;8.30;;;-2.40;99.90;;;;;;5071396;28;20280;-37
2022/01/07 03:56:55;;;;;;;14.90;8.63;;;-2.40;99.90;;;;;;5054683;28;20297;-37
2022/01/07 03:59:21;;;;;;;15.73;8.40;;;-2.40;99.90;;;;;;5054396;28;20189;-36
2022/01/07 04:01:47;;;;;;;13.07;7.77;;;-2.40;99.90;;;;;;5071230;28;20166;-36
2022/01/07 04:04:13;;;;;;;13.20;7.43;;;-2.40;99.90;;;;;;5054151;28;20196;-36
2022/01/07 04:06:38;;;;;;;13.00;7.43;;;-2.40;99.90;;;;;;5054648;28;20201;-36
2022/01/07 04:09:04;;;;;;;14.93;7.93;;;-2.30;99.90;;;;;;5070756;28;20185;-36
2022/01/07 04:11:30;;;;;;;11.17;7.53;;;-2.40;99.90;;;;;;5054453;28;20268;-37
2022/01/07 04:13:56;;;;;;;12.97;7.87;;;-2.40;99.90;;;;;;5054238;28;20213;-36
2022/01/07 04:16:22;;;;;;;15.90;8.83;;;-2.30;99.90;;;;;;5072263;28;20190;-35
2022/01/07 04:18:48;;;;;;;13.47;8.03;;;-2.30;99.90;;;;;;5054012;28;20240;-36
2022/01/07 04:21:14;;;;;;;12.63;7.70;;;-2.30;99.90;;;;;;5054341;28;20205;-36
2022/01/07 04:23:40;;;;;;;11.23;7.30;;;-2.30;99.90;;;;;;5070629;28;20190;-36
2022/01/07 04:26:05;;;;;;;16.43;8.33;;;-2.40;99.90;;;;;;5070573;28;20196;-36
2022/01/07 04:28:31;;;;;;;15.13;8.70;;;-2.30;99.90;;;;;;5070460;28;20188;-36
2022/01/07 04:30:58;;;;;;;13.27;7.67;;;-2.30;99.90;;;;;;5070373;28;20266;-36
2022/01/07 04:33:29;;;;;;;13.50;8.90;;;-2.20;99.90;;;;;;5070382;28;20668;-36
2022/01/07 04:35:55;;;;;;;14.03;8.37;;;-2.30;99.90;;;;;;5054308;28;20292;-36
2022/01/07 04:38:22;;;;;;;13.90;8.30;;;-2.30;99.90;;;;;;5053753;28;20272;-36
2022/01/07 04:40:48;;;;;;;14.57;8.70;;;-2.30;99.90;;;;;;5053865;28;20205;-36
2022/01/07 04:43:15;;;;;;;12.43;8.37;;;-2.30;99.90;;;;;;5053664;28;20180;-36
2022/01/07 04:45:41;;;;;;;14.30;8.13;;;-2.20;99.90;;;;;;5053858;28;20269;-36
2022/01/07 04:48:07;;;;;;;16.67;8.90;;;-2.20;99.90;;;;;;5053378;28;20181;-36
2022/01/07 04:50:33;;;;;;;15.10;8.57;;;-2.10;99.90;;;;;;5070431;28;20637;-36
2022/01/07 04:53:00;;;;;;;12.43;7.47;;;-2.10;99.90;;;;;;5053095;28;20177;-36
2022/01/07 04:55:29;;;;;;;10.83;7.10;;;-2.10;99.90;;;;;;5070195;28;20190;-36
2022/01/07 04:57:56;;;;;;;13.97;7.53;;;-2.10;99.90;;;;;;5070264;28;20223;-36
2022/01/07 05:00:24;;;;;;;11.93;7.50;;;-2.10;99.90;;;;;;5036346;28;20186;-36
2022/01/07 05:02:50;;;;;;;12.57;8.03;;;-2.10;99.90;;;;;;5030308;28;20661;-36
2022/01/07 05:05:16;;;;;;;12.83;7.70;;;-2.10;99.90;;;;;;5030357;28;20186;-36
2022/01/07 05:07:42;;;;;;;14.50;7.60;;;-2.10;99.90;;;;;;5029810;28;20251;-36
2022/01/07 05:10:13;;;;;;;11.63;7.00;;;-2.20;99.90;;;;;;5030013;28;20178;-36
2022/01/07 05:12:39;;;;;;;13.07;7.80;;;-2.20;99.90;;;;;;5030055;28;20274;-36
2022/01/07 05:15:06;;;;;;;13.47;7.97;;;-2.30;99.90;;;;;;5013299;28;20228;-36
2022/01/07 05:17:36;;;;;;;13.73;9.43;;;-2.40;99.90;;;;;;5030466;28;20294;-36
2022/01/07 05:20:03;;;;;;;12.70;8.10;;;-2.30;99.90;;;;;;5031394;28;20171;-36
2022/01/07 05:22:29;;;;;;;13.17;7.83;;;-2.30;99.90;;;;;;5029854;28;20261;-36
2022/01/07 05:24:55;;;;;;;14.03;7.37;;;-2.30;99.90;;;;;;5029970;28;20292;-36
2022/01/07 05:27:21;;;;;;;15.83;7.63;;;-2.30;99.90;;;;;;5030044;28;20221;-36
2022/01/07 05:29:47;;;;;;;12.60;7.90;;;-2.20;99.90;;;;;;5041595;28;20193;-36
2022/01/07 05:32:13;;;;;;;13.40;7.67;;;-2.20;99.90;;;;;;5053108;28;20242;-36
2022/01/07 05:34:39;;;;;;;12.87;6.80;;;-2.30;99.90;;;;;;5053049;28;20676;-36
2022/01/07 05:37:07;;;;;;;13.27;8.63;;;-2.30;99.90;;;;;;5052336;28;20197;-36
2022/01/07 05:39:33;;;;;;;16.00;9.23;;;-2.30;99.90;;;;;;5052374;28;20180;-36
2022/01/07 05:42:00;;;;;;;11.87;8.07;;;-2.30;99.90;;;;;;5053145;28;20185;-36
2022/01/07 05:44:26;;;;;;;11.53;7.43;;;-2.40;99.90;;;;;;5052922;28;20191;-36
2022/01/07 05:46:51;;;;;;;13.83;8.43;;;-2.40;99.90;;;;;;5069788;28;20193;-36
2022/01/07 05:49:17;;;;;;;13.10;7.60;;;-2.40;99.90;;;;;;5069462;28;20188;-37
2022/01/07 05:51:43;;;;;;;14.20;7.83;;;-2.40;99.90;;;;;;5052977;28;20184;-36
2022/01/07 05:54:09;;;;;;;12.17;7.47;;;-2.40;99.90;;;;;;5052807;28;20221;-36
2022/01/07 05:56:36;;;;;;;11.67;8.10;;;-2.30;99.90;;;;;;5052883;28;20197;-36
2022/01/07 05:59:02;;;;;;;17.17;8.60;;;-2.30;99.90;;;;;;5052422;28;20180;-36
2022/01/07 06:01:28;;;;;;;13.43;8.40;;;-2.30;99.90;;;;;;5070836;28;20169;-36
2022/01/07 06:03:55;;;;;;;17.30;8.93;;;-2.30;99.90;;;;;;5052713;28;20204;-36
2022/01/07 06:06:21;;;;;;;16.93;10.43;;;-2.30;99.90;;;;;;5052823;28;20287;-36
2022/01/07 06:08:47;;;;;;;16.77;10.10;;;-2.30;99.90;;;;;;5069419;28;20269;-36
2022/01/07 06:11:13;;;;;;;13.57;8.87;;;-2.30;99.90;;;;;;5052724;28;20189;-36
2022/01/07 06:13:40;;;;;;;12.10;8.00;;;-2.30;99.90;;;;;;5052595;28;20247;-36
2022/01/07 06:16:07;;;;;;;10.23;7.37;;;-2.30;99.90;;;;;;5052798;28;20193;-36
2022/01/07 06:18:32;;;;;;;12.60;7.57;;;-2.30;99.90;;;;;;5052506;28;20177;-36
2022/01/07 06:20:58;;;;;;;13.17;7.53;;;-2.30;99.90;;;;;;5052560;28;20771;-37
2022/01/07 06:23:24;;;;;;;14.53;7.53;;;-2.40;99.90;;;;;;5052630;28;20204;-36
2022/01/07 06:25:50;;;;;;;13.80;8.40;;;-2.30;99.90;;;;;;5069148;28;20201;-36
2022/01/07 06:28:17;;;;;;;13.20;7.80;;;-2.40;99.90;;;;;;5052174;28;20605;-36
2022/01/07 06:30:43;;;;;;;12.53;7.83;;;-2.40;99.90;;;;;;5069123;28;20196;-36
2022/01/07 06:33:09;;;;;;;14.40;8.87;;;-2.40;99.90;;;;;;5052343;28;20802;-36
2022/01/07 06:35:35;;;;;;;15.73;8.90;;;-2.40;99.90;;;;;;5052431;28;20274;-36
2022/01/07 06:38:01;;;;;;;13.53;8.30;;;-2.30;99.90;;;;;;5052438;28;20181;-36
2022/01/07 06:40:27;;;;;;;15.43;8.07;;;-2.20;99.90;;;;;;5052305;28;20185;-36
2022/01/07 06:42:53;;;;;;;15.07;8.30;;;-2.20;99.90;;;;;;5069238;28;20173;-36
2022/01/07 06:45:19;;;;;;;13.37;8.17;;;-2.20;99.90;;;;;;5069181;28;20264;-36
2022/01/07 06:47:44;;;;;;;12.73;7.87;;;-2.20;99.90;;;;;;5052308;28;20198;-36
2022/01/07 06:50:12;;;;;;;13.57;8.33;;;-2.20;99.90;;;;;;5054793;28;20182;-37
2022/01/07 06:52:38;;;;;;;18.37;8.00;;;-2.20;99.90;;;;;;5055888;28;20220;-36
2022/01/07 06:55:04;;;;;;;13.63;7.90;;;-2.20;99.90;;;;;;5072400;28;20216;-36
2022/01/07 06:57:30;;;;;;;14.77;8.10;;;-2.20;99.90;;;;;;5055942;28;20193;-36
2022/01/07 06:59:56;;;;;;;15.17;8.33;;;-2.20;99.90;;;;;;5055408;28;20216;-36
2022/01/07 07:02:22;;;;;;;14.80;8.17;;;-2.20;99.90;;;;;;5072413;28;20245;-37
2022/01/07 07:04:48;;;;;;;16.80;9.47;;;-2.20;99.90;;;;;;5055876;28;20215;-36
2022/01/07 07:07:14;;;;;;;15.23;8.70;;;-2.20;99.90;;;;;;5055834;28;20676;-36
2022/01/07 07:09:40;;;;;;;13.73;8.27;;;-2.20;99.90;;;;;;5071985;28;20195;-36
2022/01/07 07:12:07;;;;;;;14.90;8.63;;;-2.20;99.90;;;;;;5073860;28;20177;-36
2022/01/07 07:14:33;;;;;;;17.20;8.73;;;-2.20;99.90;;;;;;5072110;28;20201;-36
2022/01/07 07:16:59;;;;;;;15.63;8.13;;;-2.20;99.90;;;;;;5072257;28;20197;-36
2022/01/07 07:19:24;;;;;;;18.27;10.00;;;-2.10;99.90;;;;;;5055148;28;20214;-36
2022/01/07 07:21:50;;;;;;;17.43;9.37;;;-2.10;99.90;;;;;;5072127;28;20226;-36
2022/01/07 07:24:16;;;;;;;16.90;10.13;;;-2.10;99.90;;;;;;5071883;28;20177;-36
2022/01/07 07:26:42;;;;;;;18.70;10.87;;;-2.00;99.90;;;;;;5055759;28;20217;-37
2022/01/07 07:29:08;;;;;;;16.03;10.37;;;-2.00;99.90;;;;;;5073161;28;20239;-37
2022/01/07 07:31:38;;;;;;;15.63;8.80;;;-1.90;99.90;;;;;;5071830;28;20695;-37
2022/01/07 07:36:44;;;;;;;16.63;9.97;;;-1.90;99.90;;;;;;5071627;28;20189;-37
2022/01/07 07:39:12;;;;;;;15.47;9.60;;;-1.80;99.90;;;;;;5071284;28;20238;-37
2022/01/07 07:41:41;;;;;;;15.67;9.60;;;-1.80;99.90;;;;;;5055449;28;20177;-38
2022/01/07 07:44:08;;;;;;;15.17;8.53;;;-1.80;99.90;;;;;;5054841;28;20234;-37
2022/01/07 07:46:36;;;;;;;17.43;9.43;;;-1.80;99.90;;;;;;5071637;28;20197;-38
2022/01/07 07:49:05;;;;;;;17.03;10.13;;;-1.80;99.90;;;;;;5054504;28;20188;-38
2022/01/07 07:51:32;;;;;;;17.40;10.27;;;-1.70;99.90;;;;;;5054732;28;20192;-37
2022/01/07 07:53:58;;;;;;;19.33;11.30;;;-1.70;99.90;;;;;;5071642;28;20213;-37
2022/01/07 07:56:26;;;;;;;19.17;10.50;;;-1.80;99.90;;;;;;5054523;28;20273;-37
2022/01/07 07:58:52;;;;;;;17.63;10.70;;;-1.70;99.90;;;;;;5053419;28;20200;-38
2022/01/07 08:01:18;;;;;;;18.50;11.47;;;-1.80;99.90;;;;;;5034384;28;20189;-37
2022/01/07 08:03:45;;;;;;;16.57;11.07;;;-1.70;99.90;;;;;;5051291;28;20177;-37
2022/01/07 08:06:11;;;;;;;22.63;14.43;;;-1.70;99.90;;;;;;5034766;28;20209;-38
2022/01/07 08:08:37;;;;;;;20.97;12.27;;;-1.60;99.90;;;;;;5051023;28;20178;-40
2022/01/07 08:11:07;;;;;;;18.53;11.30;;;-1.50;99.90;;;;;;5034925;28;20315;-43
2022/01/07 08:16:19;;;;;;;16.57;9.40;;;-1.40;99.90;;;;;;5050722;28;20202;-43
2022/01/07 08:18:49;;;;;;;14.87;9.27;;;-1.40;99.90;;;;;;5050721;28;20199;-46
2022/01/07 08:21:16;;;;;;;14.30;8.97;;;-1.30;99.90;;;;;;5051085;28;20261;-37
2022/01/07 08:23:43;;;;;;;14.83;9.40;;;-1.30;99.90;;;;;;5034351;28;20182;-41
2022/01/07 08:26:11;;;;;;;16.17;9.97;;;-1.20;99.90;;;;;;5034262;28;20202;-41
2022/01/07 08:28:42;;;;;;;12.50;8.07;;;-1.20;99.90;;;;;;5050573;28;20247;-40
2022/01/07 08:36:30;;;;;;;15.90;8.83;;;-1.10;99.90;;;;;;5070669;28;20289;-42
2022/01/07 08:38:57;;;;;;;18.37;10.00;;;-1.00;99.90;;;;;;5070446;28;20173;-42
2022/01/07 08:41:28;;;;;;;13.60;8.93;;;-1.00;99.90;;;;;;5070263;28;20256;-38
2022/01/07 08:43:54;;;;;;;17.80;9.20;;;-1.00;99.90;;;;;;5054136;28;20193;-39
2022/01/07 08:46:20;;;;;;;15.93;9.23;;;-0.90;99.90;;;;;;5053868;28;20212;-41
2022/01/07 08:48:46;;;;;;;15.17;9.53;;;-0.80;99.90;;;;;;5070216;28;20174;-37
2022/01/07 08:51:12;;;;;;;19.13;10.00;;;-0.80;99.90;;;;;;5070304;28;20182;-38
2022/01/07 08:53:38;;;;;;;14.90;9.30;;;-0.80;99.90;;;;;;5070091;28;20209;-39
2022/01/07 08:56:05;;;;;;;14.57;9.20;;;-0.70;99.90;;;;;;5052952;28;20198;-39
2022/01/07 08:58:31;;;;;;;14.27;9.20;;;-0.70;99.90;;;;;;5053277;28;20231;-37
2022/01/07 09:00:57;;;;;;;15.37;8.70;;;-0.70;99.90;;;;;;5070273;28;20188;-37
2022/01/07 09:03:24;;;;;;;15.57;9.27;;;-0.60;99.90;;;;;;5053788;28;20177;-40
2022/01/07 09:05:49;;;;;;;14.27;8.47;;;-0.60;99.90;;;;;;5053435;28;20201;-39
2022/01/07 09:08:15;;;;;;;16.07;9.90;;;-0.50;99.90;;;;;;5069739;28;20327;-39
2022/01/07 09:10:42;;;;;;;19.63;10.60;;;-0.50;99.90;;;;;;5071188;28;20170;-37
2022/01/07 09:13:08;;;;;;;24.27;12.10;;;-0.40;99.90;;;;;;5052901;28;20187;-39
2022/01/07 09:15:35;;;;;;;31.33;14.73;;;-0.40;99.90;;;;;;5053409;28;20224;-39
2022/01/07 09:18:09;;;;;;;37.23;17.27;;;-0.40;99.90;;;;;;5053040;28;20237;-38
2022/01/07 09:20:43;;;;;;;28.57;15.40;;;-0.30;99.90;;;;;;5069986;28;20189;-39
2022/01/07 09:23:11;;;;;;;26.33;13.67;;;-0.30;99.90;;;;;;5053501;28;20206;-38
2022/01/07 09:25:37;;;;;;;21.47;12.03;;;-0.30;99.90;;;;;;5053142;28;20187;-40
2022/01/07 09:28:05;;;;;;;21.60;10.70;;;-0.20;99.90;;;;;;5052944;28;20191;-37
2022/01/07 09:30:31;;;;;;;18.20;10.07;;;-0.20;99.90;;;;;;5052930;28;20190;-37
2022/01/07 09:32:58;;;;;;;14.63;9.50;;;-0.20;99.90;;;;;;5053250;28;20201;-37
2022/01/07 09:35:24;;;;;;;16.10;9.83;;;-0.10;99.90;;;;;;5052832;28;20210;-40
2022/01/07 09:37:50;;;;;;;16.80;9.30;;;-0.10;99.90;;;;;;5052765;28;20212;-38
2022/01/07 09:40:17;;;;;;;19.93;10.87;;;0.00;99.90;;;;;;5052846;28;20189;-37
2022/01/07 09:43:16;;;;;;;16.63;10.20;;;0.00;99.90;;;;;;5069608;28;20174;-38
2022/01/07 09:45:42;;;;;;;16.10;10.00;;;0.10;99.90;;;;;;5030729;28;20219;-38
2022/01/07 09:48:08;;;;;;;16.10;10.23;;;0.10;99.90;;;;;;5052728;28;20224;-38
2022/01/07 09:50:36;;;;;;;17.17;10.57;;;0.20;99.90;;;;;;5053186;28;20183;-38
2022/01/07 09:53:12;;;;;;;18.73;12.10;;;0.30;99.90;;;;;;5052995;28;20182;-38
2022/01/07 09:55:39;;;;;;;20.37;12.30;;;0.30;99.90;;;;;;5052667;28;20235;-39
2022/01/07 09:58:07;;;;;;;31.77;17.23;;;0.40;99.90;;;;;;5052783;28;20182;-37
2022/01/07 10:00:44;;;;;;;26.17;14.50;;;0.40;99.90;;;;;;5069161;28;20194;-38
2022/01/07 10:03:12;;;;;;;20.67;11.67;;;0.50;99.90;;;;;;5052839;28;20175;-37
2022/01/07 10:05:46;;;;;;;17.70;11.63;;;0.50;99.90;;;;;;5052759;28;20194;-37
2022/01/07 10:08:30;;;;;;;16.03;10.20;;;0.50;99.90;;;;;;5069276;28;20186;-37
2022/01/07 10:11:19;;;;;;;16.17;10.07;;;0.60;99.90;;;;;;5069646;28;20173;-37
2022/01/07 10:13:48;;;;;;;14.23;9.73;;;0.60;99.90;;;;;;5069499;28;20293;-37
2022/01/07 10:16:23;;;;;;;18.63;9.83;;;0.60;99.90;;;;;;5052978;28;20198;-38
2022/01/07 10:18:50;;;;;;;16.23;9.43;;;0.60;99.90;;;;;;5052420;28;20187;-37
2022/01/07 10:21:18;;;;;;;18.13;10.07;;;0.60;99.90;;;;;;5052430;28;20270;-38
2022/01/07 10:23:45;;;;;;;16.23;10.33;;;0.60;99.90;;;;;;5071614;28;20180;-37
2022/01/07 10:26:15;;;;;;;14.33;9.20;;;0.60;99.90;;;;;;5056552;28;20226;-39
2022/01/07 10:28:42;;;;;;;14.43;9.07;;;0.60;99.90;;;;;;5055997;28;20231;-40
2022/01/07 10:31:09;;;;;;;16.27;10.13;;;0.60;99.90;;;;;;5072983;28;20201;-38
2022/01/07 10:33:41;;;;;;;17.27;10.27;;;0.70;99.90;;;;;;5072867;28;20290;-38
2022/01/07 10:36:10;;;;;;;18.73;10.90;;;0.70;99.90;;;;;;5056477;28;20202;-40
2022/01/07 10:39:06;;;;;;;14.80;9.90;;;0.70;99.90;;;;;;5072190;28;20220;-39
2022/01/07 10:41:36;;;;;;;18.87;10.60;;;0.80;99.90;;;;;;5056637;28;20184;-37
2022/01/07 10:44:04;;;;;;;14.90;9.60;;;0.80;99.90;;;;;;5056399;28;20195;-38
2022/01/07 10:46:31;;;;;;;14.80;9.33;;;0.80;99.90;;;;;;5056453;28;20694;-38
2022/01/07 10:48:59;;;;;;;16.67;10.43;;;0.90;99.90;;;;;;5056276;28;20260;-37
2022/01/07 10:51:31;;;;;;;12.53;8.53;;;0.90;99.90;;;;;;5056362;28;20192;-37
2022/01/07 10:53:59;;;;;;;14.80;9.67;;;0.90;99.90;;;;;;5056201;28;20212;-37
2022/01/07 10:56:40;;;;;;;14.60;9.70;;;1.00;99.90;;;;;;5055805;28;20204;-38
2022/01/07 10:59:15;;;;;;;15.50;9.40;;;1.00;99.90;;;;;;5072497;28;20218;-40
2022/01/07 11:01:46;;;;;;;15.30;10.40;;;1.10;99.90;;;;;;5072854;28;20192;-37
2022/01/07 11:04:14;;;;;;;15.27;8.90;;;1.10;99.90;;;;;;5072848;28;20174;-37
2022/01/07 11:06:41;;;;;;;11.73;8.07;;;1.20;99.90;;;;;;5072680;28;20281;-38
2022/01/07 11:09:09;;;;;;;11.53;7.90;;;1.20;99.90;;;;;;5072447;28;20192;-37
2022/01/07 11:11:43;;;;;;;11.07;7.33;;;1.30;99.90;;;;;;5072629;28;20188;-37
2022/01/07 11:14:09;;;;;;;13.13;8.13;;;1.30;99.90;;;;;;5072532;28;20273;-37
2022/01/07 11:16:39;;;;;;;12.97;8.77;;;1.40;99.90;;;;;;5072677;28;20242;-37
2022/01/07 11:19:07;;;;;;;10.33;6.60;;;1.40;99.90;;;;;;5055632;28;20176;-37
2022/01/07 11:21:34;;;;;;;10.53;6.70;;;1.40;99.90;;;;;;5055701;28;20313;-37
2022/01/07 11:24:34;;;;;;;11.07;7.50;;;1.50;99.90;;;;;;5055737;28;20176;-37
2022/01/07 11:27:11;;;;;;;10.30;7.40;;;1.50;99.90;;;;;;5055814;28;20219;-38
2022/01/07 11:29:39;;;;;;;9.27;7.07;;;1.60;99.90;;;;;;5055300;28;20660;-37
2022/01/07 11:32:36;;;;;;;9.60;6.43;;;1.60;99.90;;;;;;5055095;28;20188;-36
2022/01/07 11:35:20;;;;;;;9.73;6.03;;;1.60;99.90;;;;;;5070919;28;20208;-36
2022/01/07 11:37:50;;;;;;;10.40;6.23;;;1.60;99.90;;;;;;5054913;28;20664;-36
2022/01/07 11:40:28;;;;;;;9.60;6.27;;;1.60;99.90;;;;;;5073510;28;20177;-36
2022/01/07 11:42:55;;;;;;;10.60;6.80;;;1.70;99.90;;;;;;5055627;28;20180;-36
2022/01/07 11:45:33;;;;;;;12.33;7.00;;;1.70;99.90;;;;;;5072144;28;20195;-36
2022/01/07 11:48:12;;;;;;;11.70;6.73;;;1.70;99.90;;;;;;5072053;28;20210;-36
2022/01/07 11:51:13;;;;;;;10.97;6.60;;;1.70;99.90;;;;;;5072259;28;20180;-36
2022/01/07 11:53:39;;;;;;;7.70;5.33;;;1.80;99.90;;;;;;5055608;28;20216;-36
2022/01/07 11:56:10;;;;;;;10.87;6.27;;;1.80;99.90;;;;;;5071849;28;20197;-37
2022/01/07 11:58:40;;;;;;;8.90;5.57;;;1.80;99.90;;;;;;5071584;28;20575;-36
2022/01/07 12:01:21;;;;;;;8.07;6.10;;;1.80;99.90;;;;;;5071999;28;20200;-36
2022/01/07 12:03:52;;;;;;;7.50;5.53;;;1.80;99.90;;;;;;5073229;28;20176;-36
2022/01/07 12:06:25;;;;;;;7.43;5.20;;;1.80;99.90;;;;;;5054913;28;20204;-36
2022/01/07 12:09:10;;;;;;;8.37;5.47;;;1.80;99.90;;;;;;5071079;28;20192;-36
2022/01/07 12:11:49;;;;;;;9.17;5.90;;;1.80;99.90;;;;;;5054499;28;20191;-47
2022/01/07 12:14:27;;;;;;;8.50;5.70;;;1.80;99.90;;;;;;5054070;28;20204;-47
2022/01/07 12:16:55;;;;;;;8.57;5.50;;;1.80;99.90;;;;;;5070817;28;20211;-47
2022/01/07 12:19:36;;;;;;;8.47;5.87;;;1.90;99.90;;;;;;5054146;28;20204;-47
2022/01/07 12:22:07;;;;;;;7.27;5.30;;;1.90;99.90;;;;;;5054182;28;20188;-47
2022/01/07 12:24:33;;;;;;;9.73;5.50;;;1.90;99.90;;;;;;5054193;28;20185;-47
2022/01/07 12:27:07;;;;;;;7.40;4.80;;;2.00;99.90;;;;;;5070831;28;20214;-47
2022/01/07 12:29:39;;;;;;;7.70;5.00;;;2.00;99.90;;;;;;5053963;28;20210;-47
2022/01/07 12:32:06;;;;;;;7.33;4.70;;;2.00;99.90;;;;;;5054099;28;20181;-46
2022/01/07 12:34:44;;;;;;;9.13;5.07;;;2.10;99.90;;;;;;5053833;28;20201;-47
2022/01/07 12:37:12;;;;;;;13.57;6.83;;;2.10;99.90;;;;;;5053935;28;20236;-47
2022/01/07 12:39:45;;;;;;;9.83;6.97;;;2.20;99.90;;;;;;5070068;28;20188;-46
2022/01/07 12:42:11;;;;;;;8.60;5.50;;;2.20;99.90;;;;;;5054031;28;20177;-46
2022/01/07 12:44:40;;;;;;;9.33;5.07;;;2.20;99.90;;;;;;5054203;28;20181;-46
2022/01/07 12:47:07;;;;;;;8.23;5.27;;;2.20;99.90;;;;;;5053313;28;20208;-46
2022/01/07 12:49:42;;;;;;;7.67;6.03;;;2.30;99.90;;;;;;5053511;28;20272;-46
2022/01/07 12:52:30;;;;;;;6.83;5.07;;;2.30;99.90;;;;;;5053764;28;20196;-46
2022/01/07 12:55:09;;;;;;;9.07;5.77;;;2.30;99.90;;;;;;5039708;28;20220;-46